Time;durP1;ratioP1;P1;durP2;ratioP2;P2;SDS_P1;SDS_P2;PMS_P1;PMS_P2;Temp;Humidity;BMP_temperature;BMP_pressure;BME280_temperature;BME280_humidity;BME280_pressure;Samples;Min_cycle;Max_cycle;Signal;HPM_P1;HPM_P2
2022/09/12 00:01:34;;;;;;;21.50;19.40;;;;;;;12.42;100.00;101670.75;5026648;28;20021;-63
2022/09/12 00:04:01;;;;;;;21.67;19.58;;;;;;;12.39;100.00;101662.84;5026282;28;20132;-63
2022/09/12 00:06:34;;;;;;;21.60;19.55;;;;;;;12.36;100.00;101656.69;5025903;28;20452;-64
2022/09/12 00:09:07;;;;;;;21.30;19.13;;;;;;;12.33;100.00;101653.09;5027120;28;20017;-63
2022/09/12 00:11:38;;;;;;;21.55;19.42;;;;;;;12.30;100.00;101656.47;5026644;28;20057;-63
2022/09/12 00:14:05;;;;;;;22.48;20.17;;;;;;;12.25;100.00;101650.19;5026572;28;20036;-63
2022/09/12 00:16:32;;;;;;;20.75;18.85;;;;;;;12.24;100.00;101656.22;5025896;28;20072;-63
2022/09/12 00:18:58;;;;;;;21.88;19.70;;;;;;;12.19;100.00;101650.88;5026584;28;20018;-63
2022/09/12 00:21:23;;;;;;;20.05;18.15;;;;;;;12.17;100.00;101652.50;5027448;28;20021;-63
2022/09/12 00:23:49;;;;;;;20.00;18.10;;;;;;;12.14;100.00;101644.59;5030423;28;20469;-63
2022/09/12 00:26:16;;;;;;;19.85;18.02;;;;;;;12.13;100.00;101642.81;5030493;28;20112;-63
2022/09/12 00:28:42;;;;;;;19.75;17.85;;;;;;;12.10;100.00;101638.41;5030054;28;20408;-63
2022/09/12 00:31:12;;;;;;;20.73;18.73;;;;;;;12.10;100.00;101642.72;5030014;28;20026;-63
2022/09/12 00:33:38;;;;;;;20.40;18.50;;;;;;;12.10;100.00;101640.13;5030556;28;20029;-63
2022/09/12 00:36:18;;;;;;;20.40;18.38;;;;;;;12.10;100.00;101640.13;5029962;28;20480;-63
2022/09/12 00:38:44;;;;;;;19.27;17.42;;;;;;;12.09;100.00;101640.88;5030368;28;20038;-63
2022/09/12 00:41:18;;;;;;;19.35;17.45;;;;;;;12.07;100.00;101637.38;5029698;28;20049;-63
2022/09/12 00:43:47;;;;;;;19.92;17.92;;;;;;;12.04;100.00;101632.03;5029887;28;20382;-63
2022/09/12 00:46:28;;;;;;;21.83;19.55;;;;;;;12.05;100.00;101639.00;5029570;28;20025;-63
2022/09/12 00:49:02;;;;;;;20.75;18.38;;;;;;;12.04;100.00;101637.22;5029765;28;20021;-63
2022/09/12 00:51:31;;;;;;;20.85;18.45;;;;;;;12.03;100.00;101635.47;5029439;28;20021;-63
2022/09/12 00:53:58;;;;;;;18.83;17.05;;;;;;;12.03;100.00;101625.06;5029311;28;20068;-63
2022/09/12 00:56:24;;;;;;;20.48;18.58;;;;;;;12.00;100.00;101620.63;5029860;28;20401;-63
2022/09/12 00:59:05;;;;;;;20.10;18.10;;;;;;;11.97;100.00;101611.03;5029433;28;20413;-63
2022/09/12 01:01:30;;;;;;;20.97;19.07;;;;;;;11.94;100.00;101618.72;5029959;28;20017;-63
2022/09/12 01:03:56;;;;;;;19.92;18.02;;;;;;;11.92;100.00;101615.16;5029495;28;20771;-63
2022/09/12 01:06:27;;;;;;;20.60;18.50;;;;;;;11.90;100.00;101611.63;5029235;28;20091;-63
2022/09/12 01:08:53;;;;;;;22.40;20.05;;;;;;;11.88;100.00;101615.88;5029628;28;20025;-63
2022/09/12 01:11:20;;;;;;;20.98;18.85;;;;;;;11.85;100.00;101619.25;5030197;28;20029;-64
2022/09/12 01:13:47;;;;;;;21.00;18.85;;;;;;;11.84;100.00;101608.78;5029928;28;20021;-62
2022/09/12 01:16:12;;;;;;;19.15;17.20;;;;;;;11.82;100.00;101606.13;5028920;28;20025;-63
2022/09/12 01:18:39;;;;;;;20.13;18.23;;;;;;;11.78;100.00;101606.84;5028554;28;20036;-63
2022/09/12 01:21:23;;;;;;;19.17;17.20;;;;;;;11.76;100.00;101606.75;5011638;28;20371;-63
2022/09/12 01:23:48;;;;;;;19.60;17.73;;;;;;;11.72;100.00;101604.88;5029826;28;20540;-63
2022/09/12 01:26:35;;;;;;;17.55;15.85;;;;;;;11.70;100.00;101603.94;5029078;28;20032;-63
2022/09/12 01:29:31;;;;;;;19.30;17.27;;;;;;;11.69;100.00;101609.06;5028928;28;20036;-63
2022/09/12 01:32:14;;;;;;;19.13;17.20;;;;;;;11.66;100.00;101604.63;5015754;28;20024;-63
2022/09/12 01:34:54;;;;;;;19.10;17.20;;;;;;;11.63;100.00;101600.22;5034456;28;20606;-63
2022/09/12 01:37:38;;;;;;;19.52;17.63;;;;;;;11.61;100.00;101598.38;5039209;28;20036;-63
2022/09/12 01:40:20;;;;;;;19.95;17.90;;;;;;;11.61;100.00;101585.38;5027698;28;20025;-63
2022/09/12 01:43:01;;;;;;;20.80;18.67;;;;;;;11.56;100.00;101587.81;5028126;28;20044;-63
2022/09/12 01:45:32;;;;;;;22.05;19.75;;;;;;;11.53;100.00;101583.38;5028720;28;20033;-63
2022/09/12 01:48:05;;;;;;;22.25;20.05;;;;;;;11.54;100.00;101592.06;5028983;28;20045;-64
2022/09/12 01:50:35;;;;;;;22.35;20.05;;;;;;;11.55;100.00;101595.53;5028857;28;20543;-63
2022/09/12 01:53:15;;;;;;;21.88;19.67;;;;;;;11.53;100.00;101588.56;5028582;28;20037;-63
2022/09/12 01:55:45;;;;;;;21.73;19.58;;;;;;;11.53;100.00;101582.50;5028957;28;20025;-63
2022/09/12 01:58:22;;;;;;;21.00;18.95;;;;;;;11.52;100.00;101579.00;5028985;28;20100;-63
2022/09/12 02:00:59;;;;;;;22.63;20.42;;;;;;;11.49;100.00;101575.41;5028587;28;20346;-63
2022/09/12 02:03:28;;;;;;;20.70;18.63;;;;;;;11.47;100.00;101574.47;5028281;28;20040;-63
2022/09/12 02:06:17;;;;;;;21.15;19.13;;;;;;;11.44;100.00;101564.81;5028792;28;20053;-63
2022/09/12 02:08:56;;;;;;;21.02;18.80;;;;;;;11.41;100.00;101562.13;5028318;28;20449;-63
2022/09/12 02:11:21;;;;;;;21.02;18.88;;;;;;;11.41;100.00;101551.75;5028571;28;20033;-64
2022/09/12 02:14:03;;;;;;;21.75;19.65;;;;;;;11.40;100.00;101555.16;5028193;28;20045;-63
2022/09/12 02:16:47;;;;;;;;;;;;;;;11.37;100.00;101555.06;5028314;28;20059;-63
2022/09/12 02:19:22;;;;;;;20.77;18.63;;;;;;;11.33;100.00;101547.97;5027932;28;19913;-63
2022/09/12 02:22:11;;;;;;;21.75;17.63;;;;;;;11.29;100.00;101558.22;5028208;28;20030;-63
2022/09/12 02:24:41;;;;;;;18.88;17.05;;;;;;;11.31;100.00;101554.78;5027755;28;20099;-64
2022/09/12 02:27:19;;;;;;;20.35;18.35;;;;;;;11.30;100.00;101564.28;5027697;28;20028;-63
2022/09/12 02:29:45;;;;;;;19.40;17.40;;;;;;;11.27;100.00;101559.88;5027695;28;20100;-63
2022/09/12 02:32:21;;;;;;;20.00;17.90;;;;;;;11.26;100.00;101559.81;5027844;28;20619;-63
2022/09/12 02:35:07;;;;;;;19.67;17.77;;;;;;;11.25;100.00;101565.81;5027977;28;20029;-63
2022/09/12 02:37:55;;;;;;;20.60;18.63;;;;;;;11.22;100.00;101564.00;5027897;28;20075;-63
2022/09/12 02:40:21;;;;;;;21.42;19.33;;;;;;;11.19;100.00;101565.56;5027611;28;20025;-63
2022/09/12 02:42:47;;;;;;;20.85;18.52;;;;;;;11.17;100.00;101560.31;5027575;28;20080;-63
2022/09/12 02:45:12;;;;;;;20.98;18.83;;;;;;;11.14;100.00;101563.66;5026636;28;20064;-63
2022/09/12 02:47:43;;;;;;;20.45;18.40;;;;;;;11.11;100.00;101560.06;5027549;28;20052;-63
2022/09/12 02:50:09;;;;;;;20.58;18.48;;;;;;;11.10;100.00;101553.97;5027866;28;20105;-62
2022/09/12 02:52:35;;;;;;;20.50;18.40;;;;;;;11.10;100.00;101560.88;5013617;28;20151;-63
2022/09/12 02:55:03;;;;;;;21.73;19.52;;;;;;;11.09;100.00;101553.91;5015589;28;20037;-63
2022/09/12 02:57:29;;;;;;;24.58;22.17;;;;;;;11.08;100.00;101547.81;5025506;28;20099;-63
2022/09/12 02:59:59;;;;;;;24.35;21.20;;;;;;;11.08;100.00;101540.03;5026773;28;20064;-63
2022/09/12 03:02:45;;;;;;;24.25;21.63;;;;;;;11.08;100.00;101536.59;5027401;28;20109;-64
2022/09/12 03:05:17;;;;;;;25.58;22.98;;;;;;;11.09;100.00;101533.16;5027450;28;20036;-63
2022/09/12 03:08:10;;;;;;;25.88;23.08;;;;;;;11.10;100.00;101537.53;5027005;28;20029;-63
2022/09/12 03:10:50;;;;;;;26.67;23.90;;;;;;;11.08;100.00;101532.25;5027102;28;20120;-63
2022/09/12 03:13:37;;;;;;;25.42;22.70;;;;;;;11.08;100.00;101528.81;5018737;28;20037;-63
2022/09/12 03:16:28;;;;;;;24.98;22.00;;;;;;;11.09;100.00;101528.88;5023824;28;20103;-63
2022/09/12 03:18:56;;;;;;;27.88;23.80;;;;;;;11.09;100.00;101533.16;5026121;28;20126;-63
2022/09/12 03:21:32;;;;;;;27.02;24.15;;;;;;;11.08;100.00;101529.66;5026501;28;20042;-64
2022/09/12 03:24:10;;;;;;;27.52;24.27;;;;;;;11.10;100.00;101519.38;5027283;28;20037;-63
2022/09/12 03:26:54;;;;;;;24.83;22.30;;;;;;;11.10;100.00;101519.38;5027305;28;20192;-63
2022/09/12 03:29:22;;;;;;;23.58;21.17;;;;;;;11.08;100.00;101524.47;5027262;28;20037;-63
2022/09/12 03:31:53;;;;;;;23.05;20.65;;;;;;;11.09;100.00;101525.38;5026728;28;20025;-63
2022/09/12 03:34:19;;;;;;;23.95;21.45;;;;;;;11.10;100.00;101529.75;5027009;28;20034;-63
2022/09/12 03:36:45;;;;;;;24.05;21.48;;;;;;;11.10;100.00;101519.38;5027279;28;20026;-63
2022/09/12 03:39:11;;;;;;;24.38;21.88;;;;;;;11.11;100.00;101526.34;5027111;28;20057;-63
2022/09/12 03:41:36;;;;;;;25.15;22.15;;;;;;;11.11;100.00;101522.03;5026071;28;20046;-63
2022/09/12 03:44:02;;;;;;;24.85;22.35;;;;;;;11.09;100.00;101522.78;5027122;28;20368;-63
2022/09/12 03:46:27;;;;;;;23.52;21.13;;;;;;;11.10;100.00;101519.38;5027162;28;20112;-63
2022/09/12 03:48:52;;;;;;;24.50;22.00;;;;;;;11.11;100.00;101515.97;5026900;28;20025;-64
2022/09/12 03:51:18;;;;;;;22.70;20.50;;;;;;;11.11;100.00;101523.75;5027017;28;20018;-64
2022/09/12 03:53:43;;;;;;;24.13;21.60;;;;;;;11.10;100.00;101519.38;5027211;28;20449;-63
2022/09/12 03:56:10;;;;;;;23.45;21.05;;;;;;;11.09;100.00;101520.19;5026853;28;20018;-63
2022/09/12 03:58:36;;;;;;;23.70;21.17;;;;;;;11.05;100.00;101517.47;5030881;28;20030;-63
2022/09/12 04:01:12;;;;;;;24.67;22.05;;;;;;;11.04;100.00;101515.69;5030676;28;20045;-63
2022/09/12 04:03:42;;;;;;;25.50;22.80;;;;;;;11.05;100.00;101511.41;5031131;28;20021;-63
2022/09/12 04:06:09;;;;;;;26.50;23.38;;;;;;;11.04;100.00;101515.69;5030031;28;20021;-63
2022/09/12 04:08:35;;;;;;;27.08;24.23;;;;;;;11.05;100.00;101511.41;5030406;28;20421;-64
2022/09/12 04:11:07;;;;;;;26.17;23.50;;;;;;;11.05;100.00;101506.22;5030802;28;20068;-63
2022/09/12 04:13:34;;;;;;;24.15;21.63;;;;;;;11.04;100.00;101505.31;5030340;28;20036;-64
2022/09/12 04:15:59;;;;;;;25.42;22.65;;;;;;;11.06;100.00;101502.81;5030504;28;20080;-63
2022/09/12 04:18:25;;;;;;;25.58;22.25;;;;;;;11.05;100.00;101507.09;5030029;28;20029;-63
2022/09/12 04:20:51;;;;;;;25.13;22.42;;;;;;;11.04;100.00;101501.84;5030511;28;20026;-63
2022/09/12 04:23:16;;;;;;;28.15;25.08;;;;;;;11.03;100.00;101497.47;5029310;28;20044;-63
2022/09/12 04:25:41;;;;;;;28.77;25.70;;;;;;;11.03;100.00;101498.38;5030324;28;20029;-63
2022/09/12 04:28:07;;;;;;;28.42;24.65;;;;;;;11.05;100.00;101499.31;5030268;28;20104;-63
2022/09/12 04:30:33;;;;;;;29.40;24.63;;;;;;;11.03;100.00;101502.66;5030200;28;20025;-64
2022/09/12 04:32:59;;;;;;;27.55;24.65;;;;;;;11.04;100.00;101494.94;5030145;28;20021;-64
2022/09/12 04:35:24;;;;;;;29.67;25.20;;;;;;;11.03;100.00;101490.59;5029844;28;20040;-63
2022/09/12 04:37:49;;;;;;;28.55;25.52;;;;;;;11.07;100.00;101493.31;5030115;28;20175;-63
2022/09/12 04:40:14;;;;;;;29.38;24.65;;;;;;;11.07;100.00;101486.41;5016601;28;20076;-64
2022/09/12 04:42:40;;;;;;;28.77;25.67;;;;;;;11.10;100.00;101491.72;5029758;28;20053;-64
2022/09/12 04:45:06;;;;;;;30.27;26.95;;;;;;;11.11;100.00;101483.13;5029292;28;20100;-63
2022/09/12 04:47:31;;;;;;;26.98;24.17;;;;;;;11.11;100.00;101479.66;5029942;28;20424;-64
2022/09/12 04:49:57;;;;;;;31.58;25.92;;;;;;;11.08;100.00;101480.38;5029244;28;20074;-63
2022/09/12 04:52:22;;;;;;;28.08;24.42;;;;;;;11.11;100.00;101477.06;5029568;28;20422;-63
2022/09/12 04:54:47;;;;;;;29.63;26.42;;;;;;;11.12;100.00;101476.22;5029487;28;20029;-63
2022/09/12 04:57:12;;;;;;;28.92;24.88;;;;;;;11.14;100.00;101490.13;5027525;28;20025;-63
2022/09/12 04:59:38;;;;;;;29.90;26.08;;;;;;;11.14;100.00;101480.66;5028037;28;20037;-63
2022/09/12 05:02:04;;;;;;;29.35;26.25;;;;;;;11.17;100.00;101482.50;5028018;28;20300;-63
2022/09/12 05:04:30;;;;;;;29.67;26.27;;;;;;;11.16;100.00;101483.31;5027709;28;20036;-63
2022/09/12 05:06:55;;;;;;;30.17;26.85;;;;;;;11.19;100.00;101483.41;5027739;28;20255;-63
2022/09/12 05:09:21;;;;;;;28.77;25.67;;;;;;;11.22;100.00;101486.16;5026765;28;20464;-63
2022/09/12 05:11:46;;;;;;;30.38;26.27;;;;;;;11.23;100.00;101487.91;5027738;28;20116;-64
2022/09/12 05:14:11;;;;;;;30.83;27.52;;;;;;;11.24;100.00;101487.06;5029301;28;20026;-63
2022/09/12 05:16:37;;;;;;;29.98;26.73;;;;;;;11.25;100.00;101487.97;5038906;28;20029;-64
2022/09/12 05:19:03;;;;;;;31.08;27.77;;;;;;;11.27;100.00;101487.22;5037007;28;20032;-63
2022/09/12 05:21:28;;;;;;;30.83;27.52;;;;;;;11.30;100.00;101494.22;5028825;28;20453;-63
2022/09/12 05:23:55;;;;;;;31.13;26.63;;;;;;;11.32;100.00;101486.50;5028294;28;20385;-63
2022/09/12 05:26:21;;;;;;;33.30;28.17;;;;;;;11.34;100.00;101490.94;5038458;28;20014;-64
2022/09/12 05:28:48;;;;;;;32.10;27.00;;;;;;;11.37;100.00;101492.78;5028882;28;20102;-63
2022/09/12 05:31:19;;;;;;;31.60;27.08;;;;;;;11.38;100.00;101491.94;5028314;28;20105;-62
2022/09/12 05:33:46;;;;;;;31.02;27.23;;;;;;;11.41;100.00;101489.47;5036040;28;20145;-63
2022/09/12 05:36:15;;;;;;;32.50;28.58;;;;;;;11.41;100.00;101489.47;5028989;28;20029;-63
2022/09/12 05:38:41;;;;;;;32.05;27.90;;;;;;;11.46;100.00;101487.91;5028761;28;20033;-63
2022/09/12 05:41:18;;;;;;;31.48;26.88;;;;;;;11.49;100.00;101489.75;5031056;28;20088;-63
2022/09/12 05:43:44;;;;;;;34.25;28.17;;;;;;;11.51;100.00;101486.38;5028930;28;20049;-63
2022/09/12 05:46:16;;;;;;;35.67;28.85;;;;;;;11.53;100.00;101489.94;5028125;28;20059;-63
2022/09/12 05:48:43;;;;;;;32.72;28.05;;;;;;;11.58;100.00;101486.63;5032968;28;20035;-63
2022/09/12 05:51:17;;;;;;;34.38;28.13;;;;;;;11.60;100.00;101493.63;5028364;28;20032;-63
2022/09/12 05:53:44;;;;;;;30.30;26.95;;;;;;;11.64;100.00;101494.63;5028139;28;20034;-63
2022/09/12 05:56:18;;;;;;;33.90;28.70;;;;;;;11.68;100.00;101499.13;5027357;28;20313;-63
2022/09/12 05:58:47;;;;;;;30.63;27.45;;;;;;;11.71;100.00;101501.84;5027782;28;20029;-63
2022/09/12 06:01:17;;;;;;;35.10;29.67;;;;;;;11.74;100.00;101498.50;5024225;28;20041;-63
2022/09/12 06:03:47;;;;;;;32.42;28.95;;;;;;;11.77;100.00;101504.69;5031250;28;20083;-63
2022/09/12 06:06:14;;;;;;;33.90;30.23;;;;;;;11.80;100.00;101505.63;5026760;28;20025;-63
2022/09/12 06:08:42;;;;;;;36.40;30.42;;;;;;;11.84;100.00;101520.47;5028467;28;20473;-63
2022/09/12 06:11:10;;;;;;;35.55;30.52;;;;;;;11.86;100.00;101513.63;5027029;28;20489;-63
2022/09/12 06:13:38;;;;;;;33.83;29.35;;;;;;;11.89;100.00;101511.19;5025122;28;20065;-63
2022/09/12 06:16:15;;;;;;;36.35;32.42;;;;;;;11.92;100.00;101511.28;5030450;28;20040;-63
2022/09/12 06:18:41;;;;;;;33.95;29.65;;;;;;;11.95;100.00;101508.78;5024182;28;20159;-63
2022/09/12 06:21:08;;;;;;;38.05;32.65;;;;;;;11.97;100.00;101511.44;5038057;28;20111;-63
2022/09/12 06:23:34;;;;;;;37.50;31.33;;;;;;;11.98;100.00;101508.03;5026228;28;20028;-63
2022/09/12 06:25:59;;;;;;;35.00;31.10;;;;;;;11.98;100.00;101506.28;5025774;28;20025;-63
2022/09/12 06:28:25;;;;;;;35.92;31.92;;;;;;;12.00;100.00;101517.63;5024296;28;20021;-63
2022/09/12 06:30:51;;;;;;;40.40;31.42;;;;;;;12.01;100.00;101511.63;5032843;28;20029;-64
2022/09/12 06:33:17;;;;;;;37.72;31.73;;;;;;;12.00;100.00;101507.25;5038670;28;20137;-63
2022/09/12 06:35:42;;;;;;;33.88;30.27;;;;;;;11.99;100.00;101505.50;5038299;28;20524;-63
2022/09/12 06:38:08;;;;;;;35.03;31.08;;;;;;;12.00;100.00;101501.16;5036146;28;20256;-63
2022/09/12 06:40:34;;;;;;;41.58;33.22;;;;;;;12.01;100.00;101503.84;5024483;28;20022;-63
2022/09/12 06:42:59;;;;;;;36.50;32.50;;;;;;;12.04;100.00;101497.84;5029379;28;20493;-63
2022/09/12 06:45:25;;;;;;;36.22;32.00;;;;;;;12.06;100.00;101498.78;5031964;28;20032;-63
2022/09/12 06:47:50;;;;;;;37.17;31.95;;;;;;;12.10;100.00;101498.13;5026916;28;20520;-63
2022/09/12 06:50:16;;;;;;;37.50;32.50;;;;;;;12.19;100.00;101496.66;5026173;28;20038;-63
2022/09/12 06:52:42;;;;;;;38.80;33.40;;;;;;;12.39;100.00;101497.38;5029182;28;20060;-63
2022/09/12 06:55:08;;;;;;;40.40;33.97;;;;;;;12.62;100.00;101492.09;5030889;28;20587;-63
2022/09/12 06:57:35;;;;;;;34.47;30.92;;;;;;;12.91;100.00;101488.69;5026499;28;20492;-63
2022/09/12 07:00:04;;;;;;;38.70;31.67;;;;;;;13.25;100.00;101499.28;5026729;28;20059;-63
2022/09/12 07:02:29;;;;;;;30.50;27.48;;;;;;;13.66;100.00;101491.00;5008446;28;20229;-63
2022/09/12 07:04:54;;;;;;;32.28;28.90;;;;;;;14.02;100.00;101494.63;5035746;28;20040;-63
2022/09/12 07:07:20;;;;;;;30.85;25.80;;;;;;;14.27;100.00;101490.09;5043923;28;20029;-63
2022/09/12 07:09:45;;;;;;;27.52;23.55;;;;;;;14.40;100.00;101489.59;5040881;28;20436;-63
2022/09/12 07:12:11;;;;;;;27.05;24.15;;;;;;;14.38;100.00;101499.09;5042317;28;20035;-63
2022/09/12 07:14:36;;;;;;;27.08;24.40;;;;;;;14.39;100.00;101495.66;5043517;28;20025;-64
2022/09/12 07:17:02;;;;;;;26.70;24.10;;;;;;;14.42;100.00;101497.47;5041142;28;20268;-63
2022/09/12 07:19:27;;;;;;;25.73;23.15;;;;;;;14.41;100.00;101499.19;5037447;28;20057;-63
2022/09/12 07:21:52;;;;;;;27.38;24.77;;;;;;;14.57;100.00;101493.50;5026611;28;20025;-63
2022/09/12 07:24:17;;;;;;;26.08;23.42;;;;;;;14.71;100.00;101488.63;5025380;28;20493;-63
2022/09/12 07:26:43;;;;;;;24.65;22.05;;;;;;;14.76;100.00;101480.06;5037575;28;20025;-63
2022/09/12 07:29:14;;;;;;;26.70;24.30;;;;;;;14.92;100.00;101484.81;5032382;28;20078;-63
2022/09/12 07:31:40;;;;;;;25.60;23.05;;;;;;;15.39;100.00;101478.03;5025378;28;20072;-64
2022/09/12 07:34:05;;;;;;;24.50;21.98;;;;;;;15.83;100.00;101485.94;5029216;28;20037;-64
2022/09/12 07:36:31;;;;;;;25.20;22.70;;;;;;;16.24;100.00;101484.16;5028575;28;20120;-64
2022/09/12 07:38:57;;;;;;;23.95;21.60;;;;;;;16.75;100.00;101484.16;5030211;28;20029;-63
2022/09/12 07:41:27;;;;;;;22.15;20.00;;;;;;;17.03;100.00;101482.00;5030412;28;20437;-65
2022/09/12 07:43:57;;;;;;;23.50;19.95;;;;;;;17.52;100.00;101480.94;5030082;28;20021;-64
2022/09/12 07:46:24;;;;;;;23.42;19.98;;;;;;;17.86;100.00;101484.88;5029969;28;20026;-66
2022/09/12 07:48:51;;;;;;;19.75;17.85;;;;;;;18.04;100.00;101489.44;5030079;28;20056;-65
2022/09/12 07:51:17;;;;;;;20.05;18.17;;;;;;;18.34;100.00;101492.41;5030345;28;20030;-65
2022/09/12 07:53:43;;;;;;;20.48;18.48;;;;;;;18.78;100.00;101493.66;5029811;28;20485;-66
2022/09/12 07:56:10;;;;;;;19.25;17.45;;;;;;;19.06;99.65;101493.00;5029825;28;20032;-65
2022/09/12 07:58:37;;;;;;;19.50;17.65;;;;;;;19.24;98.85;101491.38;5028727;28;20358;-65
2022/09/12 08:01:07;;;;;;;19.17;16.85;;;;;;;19.32;95.57;101492.28;5029669;28;20051;-66
2022/09/12 08:03:33;;;;;;;18.30;15.60;;;;;;;19.92;95.34;101498.72;5030143;28;20029;-66
2022/09/12 08:06:08;;;;;;;18.05;16.33;;;;;;;20.27;92.89;101497.09;5029578;28;20026;-65
2022/09/12 08:08:34;;;;;;;18.05;16.35;;;;;;;20.68;92.88;101491.84;5030467;28;20025;-65
2022/09/12 08:11:01;;;;;;;17.02;15.32;;;;;;;20.86;91.81;101489.22;5029723;28;20033;-65
2022/09/12 08:13:28;;;;;;;16.45;15.02;;;;;;;20.96;87.69;101491.84;5030428;28;20017;-65
2022/09/12 08:16:05;;;;;;;16.10;14.70;;;;;;;21.03;86.22;101492.75;5029171;28;20139;-65
2022/09/12 08:18:31;;;;;;;16.00;14.50;;;;;;;21.15;84.49;101487.47;5029929;28;20029;-65
2022/09/12 08:21:01;;;;;;;15.73;14.15;;;;;;;21.47;85.93;101490.88;5028787;28;20036;-65
2022/09/12 08:23:28;;;;;;;14.85;13.35;;;;;;;21.67;84.84;101485.53;5021466;28;20033;-63
2022/09/12 08:26:02;;;;;;;15.00;13.60;;;;;;;21.40;80.79;101502.31;5025934;28;20175;-64
2022/09/12 08:28:28;;;;;;;14.10;12.80;;;;;;;21.32;81.38;101497.94;5028123;28;20490;-64
2022/09/12 08:30:54;;;;;;;14.48;13.15;;;;;;;21.59;84.85;101498.75;5029495;28;20038;-63
2022/09/12 08:33:20;;;;;;;15.52;13.98;;;;;;;21.43;80.21;101503.19;5029276;28;20385;-64
2022/09/12 08:35:46;;;;;;;14.15;12.95;;;;;;;21.47;81.48;101506.69;5028945;28;20104;-63
2022/09/12 08:38:11;;;;;;;13.60;12.27;;;;;;;21.32;80.89;101499.69;5027967;28;20029;-63
2022/09/12 08:40:52;;;;;;;13.02;11.70;;;;;;;21.65;80.31;101503.13;5027811;28;20024;-64
2022/09/12 08:43:49;;;;;;;13.50;12.40;;;;;;;21.81;79.33;101503.97;5028196;28;20467;-63
2022/09/12 08:46:35;;;;;;;12.90;11.77;;;;;;;22.17;77.70;101510.78;5002584;28;20060;-64
2022/09/12 08:49:02;;;;;;;13.77;12.40;;;;;;;22.34;78.02;101507.19;5023690;28;20151;-64
2022/09/12 08:51:32;;;;;;;14.52;13.15;;;;;;;22.36;74.82;101500.13;5026745;28;20440;-64
2022/09/12 08:54:00;;;;;;;13.20;11.98;;;;;;;22.35;77.34;101501.88;5027885;28;20021;-64
2022/09/12 08:56:29;;;;;;;12.55;11.48;;;;;;;22.52;79.15;101500.91;5027931;28;20257;-63
2022/09/12 08:58:55;;;;;;;12.50;11.00;;;;;;;22.61;75.55;101494.66;5028084;28;20037;-64
2022/09/12 09:01:37;;;;;;;12.07;10.88;;;;;;;22.60;76.85;101488.50;5037380;28;20022;-63
2022/09/12 09:04:46;;;;;;;11.63;10.52;;;;;;;22.76;76.22;101493.66;5035044;28;20056;-63
2022/09/12 09:07:45;;;;;;;12.57;10.45;;;;;;;22.89;76.78;101494.44;5033126;28;20044;-65
2022/09/12 09:10:18;;;;;;;9.75;8.93;;;;;;;22.93;73.87;101480.31;4981733;28;20036;-66
2022/09/12 09:14:46;;;;;;;9.10;8.27;;;;;;;22.99;75.14;101484.69;5045007;28;20396;-65
2022/09/12 09:16:18;;;;;;;10.00;9.10;;;;;;;23.12;73.63;101477.47;4966277;28;20464;-65
2022/09/12 09:18:46;;;;;;;9.25;8.35;;;;;;;23.14;72.65;101484.50;5036192;28;20017;-65
2022/09/12 09:21:35;;;;;;;7.95;7.35;;;;;;;22.97;73.08;101479.38;5034515;28;20029;-66
2022/09/12 09:24:08;;;;;;;8.75;8.00;;;;;;;22.93;73.12;101480.31;5025691;28;20087;-66
2022/09/12 09:26:37;;;;;;;7.57;6.95;;;;;;;22.79;72.10;101468.09;5027937;28;20040;-66
2022/09/12 09:29:10;;;;;;;7.13;6.43;;;;;;;22.95;73.40;101475.00;5028836;28;20132;-65
2022/09/12 09:31:37;;;;;;;8.02;7.32;;;;;;;22.86;71.56;101476.88;5028137;28;20242;-66
2022/09/12 09:34:13;;;;;;;7.97;6.22;;;;;;;22.97;72.60;101470.59;5029212;28;20025;-65
2022/09/12 09:37:05;;;;;;;8.07;7.28;;;;;;;22.94;72.73;101467.97;5043053;28;20032;-66
2022/09/12 09:39:33;;;;;;;7.65;6.68;;;;;;;23.06;72.53;101461.69;5032377;28;20479;-66
2022/09/12 09:42:17;;;;;;;7.00;6.40;;;;;;;23.10;70.17;101472.22;5028416;28;20643;-65
2022/09/12 09:44:47;;;;;;;7.72;6.70;;;;;;;23.12;71.14;101469.53;5027919;28;20034;-65
2022/09/12 09:47:12;;;;;;;5.80;5.30;;;;;;;23.08;71.18;101467.84;5037508;28;20246;-66
2022/09/12 09:49:38;;;;;;;5.50;5.05;;;;;;;23.15;69.86;101465.09;5032709;28;20025;-66
2022/09/12 09:52:07;;;;;;;5.82;5.32;;;;;;;23.10;68.93;101458.09;5031344;28;20026;-66
2022/09/12 09:54:38;;;;;;;5.75;5.30;;;;;;;23.03;69.97;101455.53;5027570;28;20087;-66
2022/09/12 09:57:04;;;;;;;6.10;5.57;;;;;;;23.02;68.39;101451.16;5026703;28;20485;-65
2022/09/12 09:59:32;;;;;;;6.18;5.57;;;;;;;23.00;68.71;101444.13;5042348;28;20108;-66
2022/09/12 10:02:02;;;;;;;5.22;4.82;;;;;;;23.05;70.78;101439.66;5039438;28;20020;-65
2022/09/12 10:04:32;;;;;;;5.85;4.93;;;;;;;23.12;68.04;101441.34;5040901;28;20083;-65
2022/09/12 10:07:00;;;;;;;4.88;4.47;;;;;;;23.18;69.05;101429.84;5037106;28;20037;-65
2022/09/12 10:09:36;;;;;;;5.63;5.13;;;;;;;23.20;67.61;101432.47;5036499;28;20098;-64
2022/09/12 10:12:21;;;;;;;5.35;4.93;;;;;;;23.23;68.31;101429.78;5033426;28;20039;-64
2022/09/12 10:14:57;;;;;;;5.55;4.80;;;;;;;23.28;67.26;101433.25;5042825;28;20103;-64
2022/09/12 10:17:31;;;;;;;4.93;4.53;;;;;;;23.30;66.21;101420.00;5034981;28;20029;-65
2022/09/12 10:19:57;;;;;;;5.28;4.72;;;;;;;23.40;69.46;101421.66;5037760;28;20017;-64
2022/09/12 10:22:28;;;;;;;4.55;4.15;;;;;;;23.43;66.89;101415.47;5038520;28;20027;-64
2022/09/12 10:24:58;;;;;;;5.10;4.60;;;;;;;23.38;65.28;101412.88;5026254;28;20028;-64
2022/09/12 10:27:32;;;;;;;5.13;4.55;;;;;;;23.36;63.53;101410.25;5035940;28;20461;-64
2022/09/12 10:30:18;;;;;;;4.93;3.83;;;;;;;23.22;64.09;101414.81;5032616;28;20023;-64
2022/09/12 10:32:49;;;;;;;5.05;4.53;;;;;;;23.17;64.47;101403.44;5025352;28;20033;-64
2022/09/12 10:35:30;;;;;;;4.90;4.50;;;;;;;23.07;64.32;101398.25;5027215;28;20100;-64
2022/09/12 10:38:09;;;;;;;4.60;4.20;;;;;;;23.20;64.10;101392.81;5027055;28;20284;-65
2022/09/12 10:40:40;;;;;;;5.80;4.75;;;;;;;23.26;64.39;101406.84;5027224;28;20018;-64
2022/09/12 10:43:25;;;;;;;;;;;;;;;23.35;64.29;101399.69;5021579;28;20049;-64
2022/09/12 10:45:55;;;;;;;4.55;4.15;;;;;;;23.45;64.65;101396.06;5040358;28;19974;-65
2022/09/12 10:48:30;;;;;;;5.65;4.05;;;;;;;23.56;65.76;101395.03;5039811;28;20523;-64
2022/09/12 10:50:57;;;;;;;4.80;4.20;;;;;;;23.72;65.81;101385.13;5035553;28;20115;-65
2022/09/12 10:53:25;;;;;;;4.63;4.00;;;;;;;23.78;66.83;101379.75;5039113;28;20033;-64
2022/09/12 10:56:11;;;;;;;4.93;3.35;;;;;;;23.90;65.24;101372.50;5038019;28;20231;-65
2022/09/12 10:58:55;;;;;;;3.67;3.40;;;;;;;23.99;64.16;101375.88;5022796;28;20021;-65
2022/09/12 11:01:36;;;;;;;3.42;3.10;;;;;;;24.07;65.26;101361.66;5037878;28;20465;-64
2022/09/12 11:04:26;;;;;;;4.35;3.35;;;;;;;24.13;63.98;101372.13;5035490;28;20200;-64
2022/09/12 11:07:00;;;;;;;4.03;3.55;;;;;;;24.14;63.29;101371.22;5038088;28;20029;-64
2022/09/12 11:09:44;;;;;;;4.70;3.50;;;;;;;24.21;62.74;101362.31;5037886;28;20025;-64
2022/09/12 11:12:24;;;;;;;3.17;2.95;;;;;;;24.24;61.27;101356.09;5037636;28;20025;-64
2022/09/12 11:15:15;;;;;;;3.37;3.03;;;;;;;24.22;62.74;101350.84;5039546;28;20035;-64
2022/09/12 11:17:55;;;;;;;3.78;2.80;;;;;;;24.36;63.77;101352.34;5036944;28;20569;-65
2022/09/12 11:20:39;;;;;;;3.42;3.13;;;;;;;24.52;61.98;101358.22;5038567;28;20021;-64
2022/09/12 11:23:41;;;;;;;3.72;3.42;;;;;;;24.50;61.14;101356.53;5038685;28;20036;-64
2022/09/12 11:26:39;;;;;;;3.67;3.40;;;;;;;24.53;62.33;101353.81;5032385;28;20033;-64